createdAt,value
2023-09-13T00:01:37.666Z,18.09
2023-09-13T00:04:45.443Z,18.09
2023-09-13T00:07:54.150Z,18.07
2023-09-13T00:11:01.335Z,18.03
2023-09-13T00:14:02.154Z,18.00
2023-09-13T00:17:10.908Z,17.89
2023-09-13T00:20:18.968Z,17.87
2023-09-13T00:23:27.199Z,17.94
2023-09-13T00:26:35.712Z,17.99
2023-09-13T00:29:43.504Z,17.95
2023-09-13T00:32:50.935Z,18.00
2023-09-13T00:35:58.784Z,18.10
2023-09-13T00:39:07.768Z,18.13
2023-09-13T00:42:15.215Z,18.19
2023-09-13T00:45:22.864Z,18.21
2023-09-13T00:48:31.803Z,18.13
2023-09-13T00:51:39.312Z,17.99
2023-09-13T00:54:46.500Z,17.91
2023-09-13T00:57:55.091Z,17.84
2023-09-13T01:01:02.579Z,17.88
2023-09-13T01:04:10.007Z,17.85
2023-09-13T01:07:19.229Z,17.82
2023-09-13T01:10:26.836Z,17.79
2023-09-13T01:13:33.927Z,17.81
2023-09-13T01:16:41.426Z,17.44
2023-09-13T01:19:50.379Z,17.38
2023-09-13T01:22:57.908Z,17.44
2023-09-13T01:26:04.785Z,17.43
2023-09-13T01:29:13.995Z,17.48
2023-09-13T01:32:21.588Z,17.54
2023-09-13T01:35:29.204Z,17.44
2023-09-13T01:38:38.649Z,17.28
2023-09-13T01:41:45.595Z,17.17
2023-09-13T01:44:53.936Z,17.10
2023-09-13T01:48:02.949Z,17.04
2023-09-13T01:51:10.218Z,17.03
2023-09-13T01:54:17.812Z,16.92
2023-09-13T01:57:26.312Z,16.85
2023-09-13T02:00:33.218Z,16.96
2023-09-13T02:03:40.815Z,17.07
2023-09-13T02:06:48.406Z,16.95
2023-09-13T02:09:56.658Z,16.80
2023-09-13T02:13:05.117Z,16.81
2023-09-13T02:16:12.019Z,16.71
2023-09-13T02:19:21.116Z,16.58
2023-09-13T02:22:28.733Z,16.52
2023-09-13T02:25:36.395Z,16.52
2023-09-13T02:28:44.665Z,16.62
2023-09-13T02:31:52.289Z,16.78
2023-09-13T02:35:00.395Z,16.90
2023-09-13T02:38:08.988Z,16.99
2023-09-13T02:41:17.156Z,17.00
2023-09-13T02:44:24.611Z,16.93
2023-09-13T02:47:31.830Z,16.86
2023-09-13T02:50:41.096Z,16.95
2023-09-13T02:53:48.710Z,16.77
2023-09-13T02:56:56.312Z,16.60
2023-09-13T03:00:05.098Z,16.68
2023-09-13T03:03:13.303Z,16.78
2023-09-13T03:06:20.655Z,16.86
2023-09-13T03:09:30.783Z,16.90
2023-09-13T03:12:38.184Z,16.92
2023-09-13T03:15:45.381Z,16.96
2023-09-13T03:18:54.742Z,16.93
2023-09-13T03:22:01.854Z,16.95
2023-09-13T03:25:09.606Z,16.98
2023-09-13T03:28:18.106Z,16.99
2023-09-13T03:31:27.704Z,17.03
2023-09-13T03:34:34.940Z,16.96
2023-09-13T03:37:42.181Z,16.99
2023-09-13T03:40:51.220Z,16.99
2023-09-13T03:43:58.500Z,16.99
2023-09-13T03:47:05.774Z,17.06
2023-09-13T03:50:14.349Z,17.11
2023-09-13T03:53:21.452Z,17.13
2023-09-13T03:56:29.463Z,17.08
2023-09-13T03:59:38.253Z,17.13
2023-09-13T04:02:45.606Z,17.14
2023-09-13T04:05:53.918Z,17.15
2023-09-13T04:09:01.384Z,17.14
2023-09-13T04:12:10.206Z,17.15
2023-09-13T04:15:17.587Z,17.20
2023-09-13T04:18:25.301Z,17.18
2023-09-13T04:21:33.505Z,17.18
2023-09-13T04:24:40.816Z,17.22
2023-09-13T04:27:48.094Z,17.25
2023-09-13T04:30:56.788Z,17.29
2023-09-13T04:34:05.241Z,17.28
2023-09-13T04:37:12.115Z,17.25
2023-09-13T04:40:21.313Z,17.20
2023-09-13T04:43:28.749Z,17.14
2023-09-13T04:46:35.611Z,17.15
2023-09-13T04:49:44.737Z,17.08
2023-09-13T04:52:51.961Z,17.07
2023-09-13T04:55:59.642Z,17.06
2023-09-13T04:59:06.421Z,16.99
2023-09-13T05:02:16.005Z,16.98
2023-09-13T05:05:23.720Z,16.95
2023-09-13T05:08:31.241Z,16.92
2023-09-13T05:11:40.134Z,16.88
2023-09-13T05:14:47.256Z,16.85
2023-09-13T05:17:54.940Z,16.89
2023-09-13T05:21:03.800Z,16.95
2023-09-13T05:24:11.261Z,16.93
2023-09-13T05:27:19.067Z,16.99
2023-09-13T05:30:28.460Z,17.13
2023-09-13T05:33:36.679Z,17.17
2023-09-13T05:36:44.376Z,17.23
2023-09-13T05:39:52.365Z,17.28
2023-09-13T05:43:01.519Z,17.32
2023-09-13T05:46:08.927Z,17.36
2023-09-13T05:49:16.031Z,17.53
2023-09-13T05:52:25.289Z,17.64
2023-09-13T05:55:33.183Z,17.71
2023-09-13T05:58:40.623Z,17.69
2023-09-13T06:01:49.993Z,17.73
2023-09-13T06:04:57.650Z,17.78
2023-09-13T06:08:05.285Z,17.82
2023-09-13T06:11:14.347Z,17.89
2023-09-13T06:14:23.938Z,17.99
2023-09-13T06:17:30.958Z,18.04
2023-09-13T06:20:39.354Z,18.12
2023-09-13T06:23:48.822Z,18.27
2023-09-13T06:26:56.263Z,18.42
2023-09-13T06:30:03.764Z,18.55
2023-09-13T06:33:13.468Z,18.68
2023-09-13T06:36:21.793Z,18.76
2023-09-13T06:39:30.185Z,18.74
2023-09-13T06:42:53.629Z,18.84
2023-09-13T06:45:57.705Z,18.82
2023-09-13T06:48:50.781Z,18.76
2023-09-13T06:52:01.313Z,18.68
2023-09-13T06:55:03.509Z,18.58
2023-09-13T06:58:03.622Z,18.67
2023-09-13T07:04:09.356Z,18.80
2023-09-13T07:07:07.460Z,18.95
2023-09-13T07:10:15.243Z,18.97
2023-09-13T07:13:24.417Z,18.94
2023-09-13T07:16:32.551Z,18.65
2023-09-13T07:19:39.859Z,18.55
2023-09-13T07:22:49.611Z,18.61
2023-09-13T07:25:56.588Z,18.67
2023-09-13T07:29:04.761Z,18.77
2023-09-13T07:32:14.709Z,18.72
2023-09-13T07:35:22.266Z,18.80
2023-09-13T07:38:29.950Z,18.84
2023-09-13T07:41:39.944Z,18.79
2023-09-13T07:44:48.575Z,18.73
2023-09-13T07:47:56.665Z,18.67
2023-09-13T07:51:04.400Z,18.73
2023-09-13T07:54:13.074Z,18.79
2023-09-13T07:57:20.465Z,18.95
2023-09-13T08:00:28.881Z,18.99
2023-09-13T08:03:38.101Z,19.14
2023-09-13T08:06:46.462Z,19.36
2023-09-13T08:09:53.730Z,19.21
2023-09-13T08:13:02.706Z,19.23
2023-09-13T08:16:10.423Z,19.18
2023-09-13T08:19:17.798Z,19.32
2023-09-13T08:22:38.442Z,19.47
2023-09-13T08:25:33.238Z,19.57
2023-09-13T08:28:41.368Z,19.60
2023-09-13T08:31:50.221Z,19.54
2023-09-13T08:34:58.981Z,19.72
2023-09-13T08:38:06.598Z,19.97
2023-09-13T08:41:14.397Z,19.97
2023-09-13T08:44:23.427Z,19.91
2023-09-13T08:47:42.699Z,20.10
2023-09-13T08:50:35.568Z,20.21
2023-09-13T08:53:44.871Z,20.13
2023-09-13T08:56:51.846Z,20.08
2023-09-13T09:00:00.019Z,19.98
2023-09-13T09:03:09.148Z,19.88
2023-09-13T09:06:17.297Z,19.83
2023-09-13T09:09:25.407Z,19.83
2023-09-13T09:12:33.175Z,20.08
2023-09-13T09:15:42.171Z,20.53
2023-09-13T09:16:46.919Z,20.56
2023-09-13T09:19:55.137Z,20.28
2023-09-13T09:23:04.299Z,20.02
2023-09-13T09:26:11.289Z,19.90
2023-09-13T09:29:18.838Z,19.88
2023-09-13T09:32:26.504Z,19.73
2023-09-13T09:35:35.443Z,19.91
2023-09-13T09:38:43.413Z,20.09
2023-09-13T09:41:51.116Z,20.43
2023-09-13T09:44:59.949Z,20.47
2023-09-13T09:48:07.759Z,20.43
2023-09-13T09:51:15.676Z,20.51
2023-09-13T09:54:25.021Z,20.64
2023-09-13T09:57:32.364Z,20.95
2023-09-13T10:00:40.040Z,21.24
2023-09-13T10:03:50.630Z,21.38
2023-09-13T10:06:57.681Z,21.27
2023-09-13T10:10:05.772Z,21.09
2023-09-13T10:13:12.501Z,21.24
2023-09-13T10:16:22.004Z,21.41
2023-09-13T10:19:29.616Z,21.60
2023-09-13T10:22:36.942Z,21.59
2023-09-13T10:25:46.150Z,21.66
2023-09-13T10:28:54.325Z,21.69
2023-09-13T10:32:01.137Z,21.54
2023-09-13T10:35:11.025Z,21.44
2023-09-13T10:38:18.724Z,21.46
2023-09-13T10:41:25.992Z,21.59
2023-09-13T10:44:34.850Z,21.63
2023-09-13T10:47:41.983Z,21.78
2023-09-13T10:50:49.877Z,21.92
2023-09-13T10:53:57.267Z,22.01
2023-09-13T10:57:06.535Z,22.16
2023-09-13T11:00:13.271Z,22.29
2023-09-13T11:03:21.312Z,22.25
2023-09-13T11:06:30.058Z,22.14
2023-09-13T11:09:37.324Z,22.06
2023-09-13T11:12:44.890Z,22.01
2023-09-13T11:15:53.596Z,21.83
2023-09-13T11:19:01.357Z,21.83
2023-09-13T11:22:08.986Z,21.83
2023-09-13T11:25:30.643Z,21.85
2023-09-13T11:28:22.756Z,21.64
2023-09-13T11:31:26.676Z,21.23
2023-09-13T11:34:34.377Z,20.87
2023-09-13T11:37:43.683Z,20.62
2023-09-13T11:40:51.198Z,20.46
2023-09-13T11:44:04.249Z,20.51
2023-09-13T11:47:03.716Z,20.79
2023-09-13T11:50:13.972Z,20.62
2023-09-13T11:53:12.894Z,20.58
2023-09-13T11:56:40.024Z,20.25
2023-09-13T11:59:31.209Z,20.10
2023-09-13T12:02:40.844Z,20.20
2023-09-13T12:05:29.613Z,20.10
2023-09-13T12:08:26.786Z,20.05
2023-09-13T12:11:32.956Z,19.95
2023-09-13T12:14:53.711Z,20.02
2023-09-13T12:17:39.721Z,20.00
2023-09-13T12:20:40.275Z,20.18
2023-09-13T12:23:48.495Z,20.46
2023-09-13T12:26:36.781Z,20.65
2023-09-13T12:29:45.649Z,20.93
2023-09-13T12:32:53.761Z,20.76
2023-09-13T12:36:01.669Z,20.68
2023-09-13T12:39:11.082Z,20.30
2023-09-13T12:42:15.055Z,20.24
2023-09-13T12:45:23.245Z,20.24
2023-09-13T12:48:29.633Z,20.33
2023-09-13T12:51:37.592Z,20.41
2023-09-13T12:54:46.150Z,20.51
2023-09-13T12:57:55.819Z,20.30
2023-09-13T13:00:55.963Z,20.30
2023-09-13T13:04:06.394Z,20.03
2023-09-13T13:07:08.295Z,20.05
2023-09-13T13:10:11.878Z,20.13
2023-09-13T13:13:18.745Z,20.16
2023-09-13T13:16:37.838Z,20.03
2023-09-13T13:18:51.583Z,20.08
2023-09-13T13:22:06.782Z,20.16
2023-09-13T13:24:18.582Z,20.13
2023-09-13T13:27:19.714Z,20.03
2023-09-13T13:30:19.841Z,19.88
2023-09-13T13:33:28.550Z,19.75
2023-09-13T13:36:28.250Z,19.69
2023-09-13T13:39:37.873Z,19.53
2023-09-13T13:42:45.493Z,19.32
2023-09-13T13:43:50.379Z,19.28
2023-09-13T13:46:57.862Z,19.33
2023-09-13T13:50:00.166Z,19.13
2023-09-13T13:53:10.172Z,18.98
2023-09-13T13:56:17.151Z,18.87
2023-09-13T13:59:27.703Z,18.80
2023-09-13T14:02:35.053Z,18.61
2023-09-13T14:05:45.694Z,18.34
2023-09-13T14:09:15.854Z,18.19
2023-09-13T14:12:13.807Z,18.00
2023-09-13T14:15:22.178Z,17.97
2023-09-13T14:17:16.125Z,17.91
2023-09-13T14:20:14.494Z,18.06
2023-09-13T14:23:22.822Z,18.04
2023-09-13T14:26:31.103Z,17.82
2023-09-13T14:29:40.173Z,17.55
2023-09-13T14:32:47.726Z,17.26
2023-09-13T14:35:56.436Z,17.07
2023-09-13T14:39:02.804Z,16.95
2023-09-13T14:42:07.189Z,16.90
2023-09-13T14:45:07.149Z,16.92
2023-09-13T14:48:16.141Z,16.95
2023-09-13T14:51:24.421Z,16.96
2023-09-13T14:54:32.845Z,16.89
2023-09-13T14:57:40.946Z,16.80
2023-09-13T15:00:42.095Z,16.80
2023-09-13T15:03:50.133Z,16.77
2023-09-13T15:06:58.209Z,16.63
2023-09-13T15:10:07.617Z,16.62
2023-09-13T15:13:17.356Z,16.71
2023-09-13T15:16:32.172Z,16.70
2023-09-13T15:20:20.136Z,16.41
2023-09-13T15:23:29.266Z,16.26
2023-09-13T15:26:36.889Z,15.99
2023-09-13T15:29:46.756Z,15.92
2023-09-13T15:32:46.976Z,15.76
2023-09-13T15:35:55.751Z,15.75
2023-09-13T15:39:08.193Z,15.70
2023-09-13T15:42:06.466Z,15.67
2023-09-13T15:45:13.671Z,15.63
2023-09-13T15:48:18.038Z,15.70
2023-09-13T15:51:27.026Z,15.68
2023-09-13T15:54:38.110Z,15.57
2023-09-13T15:57:31.846Z,15.51
2023-09-13T16:00:42.140Z,15.49
2023-09-13T16:03:49.929Z,15.49
2023-09-13T16:06:51.583Z,15.60
2023-09-13T16:10:00.970Z,15.57
2023-09-13T16:13:08.331Z,15.57
2023-09-13T16:16:15.789Z,15.42
2023-09-13T16:19:25.168Z,15.19
2023-09-13T16:22:33.348Z,14.95
2023-09-13T16:25:41.258Z,14.98
2023-09-13T16:28:51.674Z,14.81
2023-09-13T16:32:01.123Z,14.80
2023-09-13T16:35:08.552Z,14.75
2023-09-13T16:38:17.367Z,14.69
2023-09-13T16:41:26.131Z,14.62
2023-09-13T16:44:33.548Z,14.67
2023-09-13T16:47:42.204Z,14.61
2023-09-13T16:50:50.412Z,14.57
2023-09-13T16:53:58.351Z,14.53
2023-09-13T16:55:56.468Z,14.54
2023-09-13T16:59:06.498Z,14.68
2023-09-13T17:02:16.235Z,14.71
2023-09-13T17:05:25.168Z,14.90
2023-09-13T17:08:33.340Z,14.93
2023-09-13T17:11:43.131Z,14.98
2023-09-13T17:14:50.817Z,15.01
2023-09-13T17:17:58.033Z,14.86
2023-09-13T17:21:07.593Z,14.80
2023-09-13T17:24:15.550Z,14.65
2023-09-13T17:27:24.844Z,14.52
2023-09-13T17:30:35.205Z,14.34
2023-09-13T17:33:42.663Z,14.28
2023-09-13T17:36:51.639Z,14.31
2023-09-13T17:39:59.244Z,14.27
2023-09-13T17:43:08.424Z,14.12
2023-09-13T17:46:16.771Z,14.16
2023-09-13T17:49:25.107Z,14.16
2023-09-13T17:52:29.884Z,14.24
2023-09-13T17:55:37.920Z,14.24
2023-09-13T17:58:46.376Z,14.24
2023-09-13T18:01:56.066Z,14.28
2023-09-13T18:05:04.322Z,14.31
2023-09-13T18:08:08.354Z,14.24
2023-09-13T18:11:17.723Z,14.24
2023-09-13T18:14:24.873Z,14.29
2023-09-13T18:17:44.345Z,14.27
2023-09-13T18:20:39.525Z,14.32
2023-09-13T18:23:38.169Z,14.29
2023-09-13T18:26:45.750Z,14.37
2023-09-13T18:29:53.911Z,14.46
2023-09-13T18:32:54.200Z,14.43
2023-09-13T18:36:01.040Z,14.49
2023-09-13T18:39:09.349Z,14.50
2023-09-13T18:42:18.897Z,14.46
2023-09-13T18:45:29.233Z,14.39
2023-09-13T18:48:38.393Z,14.31
2023-09-13T18:51:50.036Z,14.24
2023-09-13T18:54:58.299Z,14.14
2023-09-13T18:58:06.236Z,14.10
2023-09-13T19:01:14.000Z,14.04
2023-09-13T19:04:22.971Z,14.06
2023-09-13T19:07:32.836Z,14.01
2023-09-13T19:10:42.840Z,13.91
2023-09-13T19:13:52.629Z,13.87
2023-09-13T19:17:00.559Z,13.74
2023-09-13T19:20:09.872Z,13.62
2023-09-13T19:23:12.318Z,13.52
2023-09-13T19:26:23.067Z,13.47
2023-09-13T19:29:20.663Z,13.46
2023-09-13T19:32:30.544Z,13.33
2023-09-13T19:35:41.243Z,13.17
2023-09-13T19:38:50.305Z,13.09
2023-09-13T19:41:58.541Z,13.03
2023-09-13T19:45:07.756Z,12.99
2023-09-13T19:48:15.766Z,12.97
2023-09-13T19:51:24.614Z,12.96
2023-09-13T19:54:34.154Z,12.93
2023-09-13T19:57:41.751Z,12.88
2023-09-13T20:00:52.939Z,12.85
2023-09-13T20:03:51.413Z,12.81
2023-09-13T20:06:58.434Z,12.81
2023-09-13T20:10:06.216Z,12.77
2023-09-13T20:13:11.840Z,12.74
2023-09-13T20:16:20.237Z,12.70
2023-09-13T20:19:29.473Z,12.66
2023-09-13T20:22:37.167Z,12.67
2023-09-13T20:25:46.633Z,12.64
2023-09-13T20:28:46.940Z,12.59
2023-09-13T20:31:54.325Z,12.56
2023-09-13T20:35:03.619Z,12.51
2023-09-13T20:38:12.079Z,12.48
2023-09-13T20:41:19.653Z,12.49
2023-09-13T20:44:21.017Z,12.49
2023-09-13T20:47:28.736Z,12.49
2023-09-13T20:50:36.473Z,12.49
2023-09-13T20:53:45.553Z,12.45
2023-09-13T20:56:53.671Z,12.48
2023-09-13T21:00:01.533Z,12.49
2023-09-13T21:03:09.105Z,12.52
2023-09-13T21:06:18.469Z,12.54
2023-09-13T21:09:26.720Z,12.54
2023-09-13T21:12:36.850Z,12.49
2023-09-13T21:15:46.257Z,12.41
2023-09-13T21:18:54.136Z,12.44
2023-09-13T21:22:02.796Z,12.38
2023-09-13T21:25:12.252Z,12.39
2023-09-13T21:28:20.327Z,12.41
2023-09-13T21:31:27.167Z,12.38
2023-09-13T21:34:28.524Z,12.37
2023-09-13T21:37:37.591Z,12.34
2023-09-13T21:40:46.450Z,12.34
2023-09-13T21:43:53.711Z,12.27
2023-09-13T21:47:02.537Z,12.30
2023-09-13T21:50:10.102Z,12.34
2023-09-13T21:53:12.589Z,12.31
2023-09-13T21:56:11.995Z,12.23
2023-09-13T21:59:21.876Z,12.15
2023-09-13T22:02:29.508Z,12.19
2023-09-13T22:05:34.183Z,12.13
2023-09-13T22:08:41.852Z,12.12
2023-09-13T22:11:50.738Z,12.12
2023-09-13T22:14:51.848Z,12.16
2023-09-13T22:17:59.006Z,12.11
2023-09-13T22:21:06.986Z,12.08
2023-09-13T22:24:14.455Z,12.06
2023-09-13T22:27:23.094Z,12.09
2023-09-13T22:30:31.220Z,12.06
2023-09-13T22:33:38.691Z,11.99
2023-09-13T22:36:46.905Z,11.93
2023-09-13T22:39:54.405Z,11.94
2023-09-13T22:43:02.142Z,11.82
2023-09-13T22:46:11.865Z,11.78
2023-09-13T22:49:19.442Z,11.75
2023-09-13T22:52:26.244Z,11.74
2023-09-13T22:55:35.829Z,11.74
2023-09-13T22:58:43.821Z,11.71
2023-09-13T23:01:51.652Z,11.70
2023-09-13T23:04:58.828Z,11.67
2023-09-13T23:08:07.726Z,11.67
2023-09-13T23:11:11.707Z,11.67
2023-09-13T23:14:19.432Z,11.67
2023-09-13T23:17:29.262Z,11.64
2023-09-13T23:20:29.907Z,11.61
2023-09-13T23:23:37.753Z,11.54
2023-09-13T23:26:47.065Z,11.44
2023-09-13T23:29:55.871Z,11.36
2023-09-13T23:33:02.766Z,11.34
2023-09-13T23:36:12.468Z,11.34
2023-09-13T23:39:20.691Z,11.34
2023-09-13T23:42:28.867Z,11.29
2023-09-13T23:45:36.733Z,11.25
2023-09-13T23:48:46.429Z,11.24
2023-09-13T23:51:54.617Z,11.17
2023-09-13T23:55:04.136Z,11.25
2023-09-13T23:58:13.021Z,11.21
